sensor_id;sensor_type;location;lat;lon;timestamp;pressure;altitude;pressure_sealevel;temperature;humidity
38880;BME280;25887;30.194;-97.880;2023-05-20T00:02:17;98278.50;;;34.23;38.30
38880;BME280;25887;30.194;-97.880;2023-05-20T00:04:43;98268.56;;;34.16;38.22
38880;BME280;25887;30.194;-97.880;2023-05-20T00:07:11;98265.00;;;34.07;38.39
38880;BME280;25887;30.194;-97.880;2023-05-20T00:09:38;98274.59;;;34.00;38.15
38880;BME280;25887;30.194;-97.880;2023-05-20T00:12:05;98271.84;;;33.92;38.31
38880;BME280;25887;30.194;-97.880;2023-05-20T00:14:31;98273.25;;;33.86;38.71
38880;BME280;25887;30.194;-97.880;2023-05-20T00:16:58;98270.50;;;33.78;38.58
38880;BME280;25887;30.194;-97.880;2023-05-20T00:19:24;98270.25;;;33.71;38.40
38880;BME280;25887;30.194;-97.880;2023-05-20T00:21:50;98273.50;;;33.65;38.94
38880;BME280;25887;30.194;-97.880;2023-05-20T00:24:16;98278.44;;;33.60;38.80
38880;BME280;25887;30.194;-97.880;2023-05-20T00:26:42;98285.22;;;33.55;39.32
38880;BME280;25887;30.194;-97.880;2023-05-20T00:29:08;98295.47;;;33.49;38.88
38880;BME280;25887;30.194;-97.880;2023-05-20T00:31:35;98305.56;;;33.46;39.31
38880;BME280;25887;30.194;-97.880;2023-05-20T00:34:01;98313.31;;;33.39;39.56
38880;BME280;25887;30.194;-97.880;2023-05-20T00:36:27;98322.84;;;33.32;39.76
38880;BME280;25887;30.194;-97.880;2023-05-20T00:38:53;98335.72;;;33.27;39.89
38880;BME280;25887;30.194;-97.880;2023-05-20T00:41:19;98342.47;;;33.21;39.37
38880;BME280;25887;30.194;-97.880;2023-05-20T00:43:46;98350.91;;;33.17;39.99
38880;BME280;25887;30.194;-97.880;2023-05-20T00:46:12;98359.31;;;33.12;39.75
38880;BME280;25887;30.194;-97.880;2023-05-20T00:48:41;98361.28;;;33.10;39.73
38880;BME280;25887;30.194;-97.880;2023-05-20T00:51:09;98363.50;;;33.05;39.88
38880;BME280;25887;30.194;-97.880;2023-05-20T00:53:35;98366.31;;;33.04;40.51
38880;BME280;25887;30.194;-97.880;2023-05-20T00:56:03;98375.44;;;33.01;40.05
38880;BME280;25887;30.194;-97.880;2023-05-20T00:58:30;98378.38;;;32.98;40.33
38880;BME280;25887;30.194;-97.880;2023-05-20T01:00:57;98377.69;;;32.96;40.61
38880;BME280;25887;30.194;-97.880;2023-05-20T01:06:43;98358.22;;;32.86;40.60
38880;BME280;25887;30.194;-97.880;2023-05-20T01:09:11;98378.06;;;32.82;40.54
38880;BME280;25887;30.194;-97.880;2023-05-20T01:11:43;98377.66;;;32.77;40.86
38880;BME280;25887;30.194;-97.880;2023-05-20T01:14:16;98379.06;;;32.71;41.00
38880;BME280;25887;30.194;-97.880;2023-05-20T01:16:44;98392.75;;;32.66;41.49
38880;BME280;25887;30.194;-97.880;2023-05-20T01:19:34;98417.84;;;32.64;41.08
38880;BME280;25887;30.194;-97.880;2023-05-20T01:22:07;98410.56;;;32.56;41.42
38880;BME280;25887;30.194;-97.880;2023-05-20T01:24:45;98414.19;;;32.55;41.52
38880;BME280;25887;30.194;-97.880;2023-05-20T01:27:18;98400.75;;;32.47;41.44
38880;BME280;25887;30.194;-97.880;2023-05-20T01:29:46;98390.25;;;32.46;41.54
38880;BME280;25887;30.194;-97.880;2023-05-20T01:32:37;98391.47;;;32.41;41.90
38880;BME280;25887;30.194;-97.880;2023-05-20T01:35:06;98383.22;;;32.35;42.03
38880;BME280;25887;30.194;-97.880;2023-05-20T01:37:37;98381.19;;;32.27;41.94
38880;BME280;25887;30.194;-97.880;2023-05-20T01:40:07;98386.22;;;32.21;42.18
38880;BME280;25887;30.194;-97.880;2023-05-20T01:42:34;98395.59;;;32.15;42.26
38880;BME280;25887;30.194;-97.880;2023-05-20T01:45:02;98410.25;;;32.09;42.80
38880;BME280;25887;30.194;-97.880;2023-05-20T01:50:53;98459.34;;;32.05;43.01
38880;BME280;25887;30.194;-97.880;2023-05-20T01:53:19;98463.94;;;32.03;42.71
38880;BME280;25887;30.194;-97.880;2023-05-20T01:55:45;98462.28;;;32.02;42.70
38880;BME280;25887;30.194;-97.880;2023-05-20T01:58:12;98447.56;;;31.98;43.23
38880;BME280;25887;30.194;-97.880;2023-05-20T02:00:46;98453.16;;;31.95;43.49
38880;BME280;25887;30.194;-97.880;2023-05-20T02:03:45;98466.56;;;31.94;42.99
38880;BME280;25887;30.194;-97.880;2023-05-20T02:06:11;98477.72;;;31.87;43.53
38880;BME280;25887;30.194;-97.880;2023-05-20T02:08:37;98501.78;;;31.86;43.60
38880;BME280;25887;30.194;-97.880;2023-05-20T02:11:04;98513.38;;;31.85;43.29
38880;BME280;25887;30.194;-97.880;2023-05-20T02:13:30;98505.41;;;31.85;43.63
38880;BME280;25887;30.194;-97.880;2023-05-20T02:15:56;98468.47;;;31.82;43.55
38880;BME280;25887;30.194;-97.880;2023-05-20T02:18:22;98453.78;;;31.78;43.75
38880;BME280;25887;30.194;-97.880;2023-05-20T02:20:51;98444.59;;;31.71;43.94
38880;BME280;25887;30.194;-97.880;2023-05-20T02:23:17;98450.19;;;31.68;43.86
38880;BME280;25887;30.194;-97.880;2023-05-20T02:25:44;98469.16;;;31.63;44.22
38880;BME280;25887;30.194;-97.880;2023-05-20T02:28:10;98468.56;;;31.59;43.93
38880;BME280;25887;30.194;-97.880;2023-05-20T02:30:39;98468.00;;;31.56;44.51
38880;BME280;25887;30.194;-97.880;2023-05-20T02:33:05;98469.25;;;31.52;44.29
38880;BME280;25887;30.194;-97.880;2023-05-20T02:35:32;98463.19;;;31.50;44.50
38880;BME280;25887;30.194;-97.880;2023-05-20T02:37:59;98468.78;;;31.47;44.45
38880;BME280;25887;30.194;-97.880;2023-05-20T02:40:25;98470.75;;;31.45;44.55
38880;BME280;25887;30.194;-97.880;2023-05-20T02:42:51;98474.47;;;31.42;45.00
38880;BME280;25887;30.194;-97.880;2023-05-20T02:45:17;98484.38;;;31.40;44.74
38880;BME280;25887;30.194;-97.880;2023-05-20T02:47:44;98498.88;;;31.36;44.71
38880;BME280;25887;30.194;-97.880;2023-05-20T02:50:31;98535.09;;;31.37;44.86
38880;BME280;25887;30.194;-97.880;2023-05-20T02:52:57;98549.59;;;31.33;44.92
38880;BME280;25887;30.194;-97.880;2023-05-20T02:55:23;98559.50;;;31.31;45.03
38880;BME280;25887;30.194;-97.880;2023-05-20T02:57:50;98562.53;;;31.26;45.35
38880;BME280;25887;30.194;-97.880;2023-05-20T03:00:17;98552.28;;;31.22;45.31
38880;BME280;25887;30.194;-97.880;2023-05-20T03:02:43;98544.53;;;31.19;45.55
38880;BME280;25887;30.194;-97.880;2023-05-20T03:05:09;98541.44;;;31.14;45.66
38880;BME280;25887;30.194;-97.880;2023-05-20T03:07:36;98545.16;;;31.11;45.74
38880;BME280;25887;30.194;-97.880;2023-05-20T03:10:03;98544.59;;;31.08;45.66
38880;BME280;25887;30.194;-97.880;2023-05-20T03:12:30;98548.22;;;31.06;45.62
38880;BME280;25887;30.194;-97.880;2023-05-20T03:14:56;98547.47;;;31.04;45.56
38880;BME280;25887;30.194;-97.880;2023-05-20T03:17:23;98566.16;;;31.03;46.19
38880;BME280;25887;30.194;-97.880;2023-05-20T03:19:49;98563.66;;;31.01;45.81
38880;BME280;25887;30.194;-97.880;2023-05-20T03:22:15;98560.28;;;30.99;46.25
38880;BME280;25887;30.194;-97.880;2023-05-20T03:24:43;98574.63;;;30.97;46.35
38880;BME280;25887;30.194;-97.880;2023-05-20T03:27:10;98587.19;;;30.95;46.02
38880;BME280;25887;30.194;-97.880;2023-05-20T03:29:37;98582.00;;;30.93;46.28
38880;BME280;25887;30.194;-97.880;2023-05-20T03:32:03;98574.41;;;30.89;46.20
38880;BME280;25887;30.194;-97.880;2023-05-20T03:34:31;98564.16;;;30.84;46.39
38880;BME280;25887;30.194;-97.880;2023-05-20T03:36:57;98558.25;;;30.81;46.78
38880;BME280;25887;30.194;-97.880;2023-05-20T03:39:44;98548.59;;;30.79;46.48
38880;BME280;25887;30.194;-97.880;2023-05-20T03:42:11;98542.94;;;30.73;46.68
38880;BME280;25887;30.194;-97.880;2023-05-20T03:44:37;98532.47;;;30.71;46.61
38880;BME280;25887;30.194;-97.880;2023-05-20T03:47:03;98528.25;;;30.69;46.67
38880;BME280;25887;30.194;-97.880;2023-05-20T03:49:29;98522.31;;;30.65;47.02
38880;BME280;25887;30.194;-97.880;2023-05-20T03:51:55;98530.66;;;30.61;47.04
38880;BME280;25887;30.194;-97.880;2023-05-20T03:54:22;98536.44;;;30.55;47.12
38880;BME280;25887;30.194;-97.880;2023-05-20T03:56:48;98553.66;;;30.49;46.98
38880;BME280;25887;30.194;-97.880;2023-05-20T03:59:15;98560.31;;;30.43;47.18
38880;BME280;25887;30.194;-97.880;2023-05-20T04:01:41;98560.53;;;30.40;46.99
38880;BME280;25887;30.194;-97.880;2023-05-20T04:04:07;98562.59;;;30.37;47.34
38880;BME280;25887;30.194;-97.880;2023-05-20T04:06:33;98570.91;;;30.32;47.25
38880;BME280;25887;30.194;-97.880;2023-05-20T04:09:02;98577.41;;;30.28;47.58
38880;BME280;25887;30.194;-97.880;2023-05-20T04:11:28;98586.44;;;30.26;47.21
38880;BME280;25887;30.194;-97.880;2023-05-20T04:13:54;98576.91;;;30.23;47.49
38880;BME280;25887;30.194;-97.880;2023-05-20T04:16:20;98576.41;;;30.18;47.51
38880;BME280;25887;30.194;-97.880;2023-05-20T04:18:49;98595.22;;;30.15;47.84
38880;BME280;25887;30.194;-97.880;2023-05-20T04:21:21;98628.97;;;30.13;47.70
38880;BME280;25887;30.194;-97.880;2023-05-20T04:23:47;98642.28;;;30.11;48.02
38880;BME280;25887;30.194;-97.880;2023-05-20T04:26:13;98658.31;;;30.10;48.19
38880;BME280;25887;30.194;-97.880;2023-05-20T04:28:39;98666.47;;;30.07;48.41
38880;BME280;25887;30.194;-97.880;2023-05-20T04:31:06;98692.13;;;30.06;48.27
38880;BME280;25887;30.194;-97.880;2023-05-20T04:33:33;98694.06;;;30.04;48.47
38880;BME280;25887;30.194;-97.880;2023-05-20T04:36:03;98700.22;;;30.05;48.60
38880;BME280;25887;30.194;-97.880;2023-05-20T04:38:30;98702.94;;;30.03;48.79
38880;BME280;25887;30.194;-97.880;2023-05-20T04:41:00;98714.50;;;30.02;48.95
38880;BME280;25887;30.194;-97.880;2023-05-20T04:43:27;98716.19;;;30.03;48.89
38880;BME280;25887;30.194;-97.880;2023-05-20T04:45:58;98711.00;;;30.02;49.08
38880;BME280;25887;30.194;-97.880;2023-05-20T04:48:26;98697.88;;;30.00;49.18
38880;BME280;25887;30.194;-97.880;2023-05-20T04:50:52;98697.16;;;29.98;49.09
38880;BME280;25887;30.194;-97.880;2023-05-20T04:53:19;98690.28;;;29.95;49.19
38880;BME280;25887;30.194;-97.880;2023-05-20T04:55:48;98708.94;;;29.94;48.99
38880;BME280;25887;30.194;-97.880;2023-05-20T04:58:18;98709.91;;;29.93;48.94
38880;BME280;25887;30.194;-97.880;2023-05-20T05:00:45;98704.97;;;29.88;49.24
38880;BME280;25887;30.194;-97.880;2023-05-20T05:03:11;98715.56;;;29.88;49.11
38880;BME280;25887;30.194;-97.880;2023-05-20T05:05:38;98713.00;;;29.87;49.16
38880;BME280;25887;30.194;-97.880;2023-05-20T05:08:05;98716.59;;;29.86;49.26
38880;BME280;25887;30.194;-97.880;2023-05-20T05:10:31;98701.78;;;29.83;49.46
38880;BME280;25887;30.194;-97.880;2023-05-20T05:12:58;98689.50;;;29.82;48.93
38880;BME280;25887;30.194;-97.880;2023-05-20T05:15:24;98689.72;;;29.79;49.40
38880;BME280;25887;30.194;-97.880;2023-05-20T05:17:50;98708.50;;;29.76;49.37
38880;BME280;25887;30.194;-97.880;2023-05-20T05:20:17;98728.97;;;29.74;49.73
38880;BME280;25887;30.194;-97.880;2023-05-20T05:22:43;98758.19;;;29.73;49.58
38880;BME280;25887;30.194;-97.880;2023-05-20T05:25:11;98769.84;;;29.70;49.56
38880;BME280;25887;30.194;-97.880;2023-05-20T05:27:37;98794.53;;;29.71;50.07
38880;BME280;25887;30.194;-97.880;2023-05-20T05:30:05;98796.69;;;29.65;50.11
38880;BME280;25887;30.194;-97.880;2023-05-20T05:32:32;98806.63;;;29.62;50.17
38880;BME280;25887;30.194;-97.880;2023-05-20T05:34:58;98807.81;;;29.58;50.05
38880;BME280;25887;30.194;-97.880;2023-05-20T05:37:24;98814.38;;;29.52;50.75
38880;BME280;25887;30.194;-97.880;2023-05-20T05:39:51;98824.31;;;29.49;50.90
38880;BME280;25887;30.194;-97.880;2023-05-20T05:42:17;98845.72;;;29.46;51.43
38880;BME280;25887;30.194;-97.880;2023-05-20T05:44:43;98848.66;;;29.41;51.39
38880;BME280;25887;30.194;-97.880;2023-05-20T05:47:09;98849.84;;;29.37;51.36
38880;BME280;25887;30.194;-97.880;2023-05-20T05:49:36;98857.59;;;29.27;51.85
38880;BME280;25887;30.194;-97.880;2023-05-20T05:52:02;98862.03;;;29.14;51.92
38880;BME280;25887;30.194;-97.880;2023-05-20T05:54:28;98872.13;;;28.95;52.46
38880;BME280;25887;30.194;-97.880;2023-05-20T05:56:55;98865.75;;;28.72;52.45
38880;BME280;25887;30.194;-97.880;2023-05-20T05:59:21;98864.69;;;28.47;52.36
38880;BME280;25887;30.194;-97.880;2023-05-20T06:01:47;98865.31;;;28.24;52.24
38880;BME280;25887;30.194;-97.880;2023-05-20T06:04:13;98875.53;;;28.01;52.36
38880;BME280;25887;30.194;-97.880;2023-05-20T06:06:40;98881.44;;;27.78;52.74
38880;BME280;25887;30.194;-97.880;2023-05-20T06:09:06;98880.00;;;27.58;52.77
38880;BME280;25887;30.194;-97.880;2023-05-20T06:11:33;98880.38;;;27.38;52.80
38880;BME280;25887;30.194;-97.880;2023-05-20T06:13:59;98888.44;;;27.20;52.83
38880;BME280;25887;30.194;-97.880;2023-05-20T06:16:26;98884.25;;;27.02;53.07
38880;BME280;25887;30.194;-97.880;2023-05-20T06:18:52;98895.50;;;26.90;53.05
38880;BME280;25887;30.194;-97.880;2023-05-20T06:21:22;98904.31;;;26.75;53.30
38880;BME280;25887;30.194;-97.880;2023-05-20T06:23:51;98906.72;;;26.63;53.59
38880;BME280;25887;30.194;-97.880;2023-05-20T06:26:17;98904.00;;;26.49;53.86
38880;BME280;25887;30.194;-97.880;2023-05-20T06:28:43;98909.91;;;26.38;53.89
38880;BME280;25887;30.194;-97.880;2023-05-20T06:31:09;98921.75;;;26.30;53.87
38880;BME280;25887;30.194;-97.880;2023-05-20T06:33:35;98911.72;;;26.21;53.89
38880;BME280;25887;30.194;-97.880;2023-05-20T06:36:01;98898.97;;;26.13;54.17
38880;BME280;25887;30.194;-97.880;2023-05-20T06:38:28;98895.06;;;26.04;54.02
38880;BME280;25887;30.194;-97.880;2023-05-20T06:40:54;98886.59;;;25.99;53.93
38880;BME280;25887;30.194;-97.880;2023-05-20T06:43:20;98867.63;;;25.93;54.00
38880;BME280;25887;30.194;-97.880;2023-05-20T06:45:47;98859.03;;;25.89;54.01
38880;BME280;25887;30.194;-97.880;2023-05-20T06:48:13;98874.16;;;25.86;54.25
38880;BME280;25887;30.194;-97.880;2023-05-20T06:50:39;98871.63;;;25.84;54.05
38880;BME280;25887;30.194;-97.880;2023-05-20T06:53:05;98867.22;;;25.85;54.06
38880;BME280;25887;30.194;-97.880;2023-05-20T06:58:54;98849.63;;;25.85;53.62
38880;BME280;25887;30.194;-97.880;2023-05-20T07:01:20;98837.47;;;25.82;53.90
38880;BME280;25887;30.194;-97.880;2023-05-20T07:03:46;98830.50;;;25.81;53.64
38880;BME280;25887;30.194;-97.880;2023-05-20T07:06:12;98815.66;;;25.80;53.79
38880;BME280;25887;30.194;-97.880;2023-05-20T07:08:40;98804.38;;;25.78;53.97
38880;BME280;25887;30.194;-97.880;2023-05-20T07:11:06;98804.59;;;25.74;53.84
38880;BME280;25887;30.194;-97.880;2023-05-20T07:13:32;98797.78;;;25.70;54.18
38880;BME280;25887;30.194;-97.880;2023-05-20T07:15:59;98796.34;;;25.64;53.99
38880;BME280;25887;30.194;-97.880;2023-05-20T07:18:25;98789.38;;;25.63;53.84
38880;BME280;25887;30.194;-97.880;2023-05-20T07:20:52;98786.00;;;25.61;53.84
38880;BME280;25887;30.194;-97.880;2023-05-20T07:23:22;98773.75;;;25.60;53.81
38880;BME280;25887;30.194;-97.880;2023-05-20T07:25:48;98760.53;;;25.62;53.92
38880;BME280;25887;30.194;-97.880;2023-05-20T07:28:18;98776.47;;;25.59;53.90
38880;BME280;25887;30.194;-97.880;2023-05-20T07:30:45;98808.03;;;25.59;54.05
38880;BME280;25887;30.194;-97.880;2023-05-20T07:33:18;98803.63;;;25.59;53.90
38880;BME280;25887;30.194;-97.880;2023-05-20T07:35:44;98804.47;;;25.60;53.97
38880;BME280;25887;30.194;-97.880;2023-05-20T07:38:11;98805.50;;;25.57;53.76
38880;BME280;25887;30.194;-97.880;2023-05-20T07:40:38;98813.38;;;25.57;53.97
38880;BME280;25887;30.194;-97.880;2023-05-20T07:43:07;98809.91;;;25.56;53.56
38880;BME280;25887;30.194;-97.880;2023-05-20T07:45:36;98809.91;;;25.56;53.70
38880;BME280;25887;30.194;-97.880;2023-05-20T07:48:03;98785.56;;;25.53;53.66
38880;BME280;25887;30.194;-97.880;2023-05-20T07:50:30;98782.06;;;25.52;53.69
38880;BME280;25887;30.194;-97.880;2023-05-20T07:52:56;98766.44;;;25.49;53.74
38880;BME280;25887;30.194;-97.880;2023-05-20T07:55:22;98749.72;;;25.50;53.51
38880;BME280;25887;30.194;-97.880;2023-05-20T07:57:49;98752.34;;;25.50;53.66
38880;BME280;25887;30.194;-97.880;2023-05-20T08:00:15;98750.66;;;25.49;53.79
38880;BME280;25887;30.194;-97.880;2023-05-20T08:02:41;98769.94;;;25.50;53.70
38880;BME280;25887;30.194;-97.880;2023-05-20T08:05:08;98763.81;;;25.49;53.77
38880;BME280;25887;30.194;-97.880;2023-05-20T08:07:34;98766.44;;;25.49;53.85
38880;BME280;25887;30.194;-97.880;2023-05-20T08:10:00;98756.88;;;25.48;53.86
38880;BME280;25887;30.194;-97.880;2023-05-20T08:12:26;98742.00;;;25.47;53.73
38880;BME280;25887;30.194;-97.880;2023-05-20T08:14:53;98735.81;;;25.48;53.89
38880;BME280;25887;30.194;-97.880;2023-05-20T08:17:19;98746.34;;;25.48;53.72
38880;BME280;25887;30.194;-97.880;2023-05-20T08:19:46;98746.34;;;25.48;54.06
38880;BME280;25887;30.194;-97.880;2023-05-20T08:22:12;98725.28;;;25.48;53.87
38880;BME280;25887;30.194;-97.880;2023-05-20T08:24:38;98702.47;;;25.49;53.90
38880;BME280;25887;30.194;-97.880;2023-05-20T08:27:05;98705.94;;;25.49;54.02
38880;BME280;25887;30.194;-97.880;2023-05-20T08:29:31;98711.38;;;25.46;54.07
38880;BME280;25887;30.194;-97.880;2023-05-20T08:31:57;98732.44;;;25.46;54.09
38880;BME280;25887;30.194;-97.880;2023-05-20T08:34:23;98751.00;;;25.43;54.14
38880;BME280;25887;30.194;-97.880;2023-05-20T08:36:50;98753.63;;;25.43;53.95
38880;BME280;25887;30.194;-97.880;2023-05-20T08:39:16;98733.69;;;25.39;54.10
38880;BME280;25887;30.194;-97.880;2023-05-20T08:41:44;98731.16;;;25.38;54.17
38880;BME280;25887;30.194;-97.880;2023-05-20T08:44:11;98737.41;;;25.35;54.31
38880;BME280;25887;30.194;-97.880;2023-05-20T08:46:38;98749.81;;;25.33;54.46
38880;BME280;25887;30.194;-97.880;2023-05-20T08:49:05;98747.41;;;25.28;54.40
38880;BME280;25887;30.194;-97.880;2023-05-20T08:51:32;98764.97;;;25.28;54.34
38880;BME280;25887;30.194;-97.880;2023-05-20T08:54:02;98754.44;;;25.28;54.35
38880;BME280;25887;30.194;-97.880;2023-05-20T08:56:28;98760.66;;;25.27;54.50
38880;BME280;25887;30.194;-97.880;2023-05-20T08:58:56;98757.25;;;25.25;54.46
38880;BME280;25887;30.194;-97.880;2023-05-20T09:01:25;98749.38;;;25.25;54.50
38880;BME280;25887;30.194;-97.880;2023-05-20T09:03:51;98753.88;;;25.23;54.64
38880;BME280;25887;30.194;-97.880;2023-05-20T09:06:18;98767.03;;;25.23;54.57
38880;BME280;25887;30.194;-97.880;2023-05-20T09:08:45;98767.94;;;25.22;54.45
38880;BME280;25887;30.194;-97.880;2023-05-20T09:11:12;98767.09;;;25.21;54.77
38880;BME280;25887;30.194;-97.880;2023-05-20T09:13:38;98762.69;;;25.22;54.73
38880;BME280;25887;30.194;-97.880;2023-05-20T09:16:05;98760.97;;;25.21;54.73
38880;BME280;25887;30.194;-97.880;2023-05-20T09:18:31;98773.28;;;25.20;55.04
38880;BME280;25887;30.194;-97.880;2023-05-20T09:21:04;98785.56;;;25.20;55.01
38880;BME280;25887;30.194;-97.880;2023-05-20T09:23:31;98793.63;;;25.17;55.15
38880;BME280;25887;30.194;-97.880;2023-05-20T09:25:59;98810.44;;;25.14;55.29
38880;BME280;25887;30.194;-97.880;2023-05-20T09:28:29;98812.03;;;25.17;55.47
38880;BME280;25887;30.194;-97.880;2023-05-20T09:30:59;98814.66;;;25.17;55.38
38880;BME280;25887;30.194;-97.880;2023-05-20T09:33:29;98798.91;;;25.17;55.40
38880;BME280;25887;30.194;-97.880;2023-05-20T09:36:08;98796.44;;;25.14;55.43
38880;BME280;25887;30.194;-97.880;2023-05-20T09:38:38;98791.50;;;25.08;55.74
38880;BME280;25887;30.194;-97.880;2023-05-20T09:41:07;98792.44;;;25.07;55.94
38880;BME280;25887;30.194;-97.880;2023-05-20T09:43:34;98783.75;;;25.05;55.84
38880;BME280;25887;30.194;-97.880;2023-05-20T09:46:03;98777.69;;;25.02;55.85
38880;BME280;25887;30.194;-97.880;2023-05-20T09:48:29;98754.13;;;25.01;55.88
38880;BME280;25887;30.194;-97.880;2023-05-20T09:50:56;98756.66;;;25.02;56.19
38880;BME280;25887;30.194;-97.880;2023-05-20T09:53:26;98750.50;;;25.04;56.31
38880;BME280;25887;30.194;-97.880;2023-05-20T09:56:12;98742.84;;;24.99;56.16
38880;BME280;25887;30.194;-97.880;2023-05-20T09:58:39;98735.09;;;24.96;56.56
38880;BME280;25887;30.194;-97.880;2023-05-20T10:01:07;98712.47;;;24.93;56.37
38880;BME280;25887;30.194;-97.880;2023-05-20T10:03:33;98706.38;;;24.93;56.79
38880;BME280;25887;30.194;-97.880;2023-05-20T10:09:41;98701.19;;;24.91;56.66
38880;BME280;25887;30.194;-97.880;2023-05-20T10:12:32;98706.59;;;24.88;56.89
38880;BME280;25887;30.194;-97.880;2023-05-20T10:17:53;98696.09;;;24.88;56.74
38880;BME280;25887;30.194;-97.880;2023-05-20T10:20:26;98703.31;;;24.85;57.11
38880;BME280;25887;30.194;-97.880;2023-05-20T10:22:56;98702.44;;;24.84;57.25
38880;BME280;25887;30.194;-97.880;2023-05-20T10:25:27;98701.59;;;24.84;57.08
38880;BME280;25887;30.194;-97.880;2023-05-20T10:28:07;98693.63;;;24.85;56.99
38880;BME280;25887;30.194;-97.880;2023-05-20T10:30:34;98694.56;;;24.84;57.08
38880;BME280;25887;30.194;-97.880;2023-05-20T10:33:04;98691.16;;;24.82;56.91
38880;BME280;25887;30.194;-97.880;2023-05-20T10:35:31;98698.03;;;24.85;57.34
38880;BME280;25887;30.194;-97.880;2023-05-20T10:38:11;98706.78;;;24.85;56.97
38880;BME280;25887;30.194;-97.880;2023-05-20T10:40:38;98700.75;;;24.83;57.19
38880;BME280;25887;30.194;-97.880;2023-05-20T10:43:27;98705.94;;;24.85;57.15
38880;BME280;25887;30.194;-97.880;2023-05-20T10:45:55;98703.53;;;24.80;57.38
38880;BME280;25887;30.194;-97.880;2023-05-20T10:48:31;98709.81;;;24.78;57.21
38880;BME280;25887;30.194;-97.880;2023-05-20T10:51:00;98723.03;;;24.76;57.34
38880;BME280;25887;30.194;-97.880;2023-05-20T10:53:40;98730.06;;;24.76;57.48
38880;BME280;25887;30.194;-97.880;2023-05-20T10:56:19;98724.09;;;24.72;57.20
38880;BME280;25887;30.194;-97.880;2023-05-20T10:58:49;98721.78;;;24.66;57.60
38880;BME280;25887;30.194;-97.880;2023-05-20T11:01:16;98715.94;;;24.61;57.69
38880;BME280;25887;30.194;-97.880;2023-05-20T11:03:48;98720.41;;;24.59;57.74
38880;BME280;25887;30.194;-97.880;2023-05-20T11:06:16;98718.88;;;24.55;57.74
38880;BME280;25887;30.194;-97.880;2023-05-20T11:08:43;98724.97;;;24.55;57.78
38880;BME280;25887;30.194;-97.880;2023-05-20T11:11:13;98733.78;;;24.54;57.84
38880;BME280;25887;30.194;-97.880;2023-05-20T11:13:40;98740.06;;;24.52;57.71
38880;BME280;25887;30.194;-97.880;2023-05-20T11:16:06;98738.34;;;24.51;57.76
38880;BME280;25887;30.194;-97.880;2023-05-20T11:18:32;98737.56;;;24.49;58.03
38880;BME280;25887;30.194;-97.880;2023-05-20T11:21:00;98733.41;;;24.44;57.71
38880;BME280;25887;30.194;-97.880;2023-05-20T11:23:28;98737.88;;;24.42;58.15
38880;BME280;25887;30.194;-97.880;2023-05-20T11:25:55;98760.66;;;24.42;58.09
38880;BME280;25887;30.194;-97.880;2023-05-20T11:28:25;98775.75;;;24.38;58.61
38880;BME280;25887;30.194;-97.880;2023-05-20T11:30:51;98789.00;;;24.35;58.05
38880;BME280;25887;30.194;-97.880;2023-05-20T11:33:18;98786.69;;;24.29;58.20
38880;BME280;25887;30.194;-97.880;2023-05-20T11:35:50;98795.69;;;24.24;58.24
38880;BME280;25887;30.194;-97.880;2023-05-20T11:38:18;98797.59;;;24.20;58.34
38880;BME280;25887;30.194;-97.880;2023-05-20T11:40:46;98803.09;;;24.15;58.17
38880;BME280;25887;30.194;-97.880;2023-05-20T11:43:13;98809.41;;;24.11;58.08
38880;BME280;25887;30.194;-97.880;2023-05-20T11:45:44;98836.66;;;24.09;58.26
38880;BME280;25887;30.194;-97.880;2023-05-20T11:48:11;98834.31;;;24.03;58.54
38880;BME280;25887;30.194;-97.880;2023-05-20T11:50:44;98847.69;;;23.98;58.60
38880;BME280;25887;30.194;-97.880;2023-05-20T11:55:51;98861.16;;;23.90;58.56
38880;BME280;25887;30.194;-97.880;2023-05-20T11:58:22;98861.22;;;23.89;58.85
38880;BME280;25887;30.194;-97.880;2023-05-20T12:00:48;98873.63;;;23.85;58.84
38880;BME280;25887;30.194;-97.880;2023-05-20T12:03:15;98874.56;;;23.84;58.47
38880;BME280;25887;30.194;-97.880;2023-05-20T12:05:42;98879.88;;;23.83;58.89
38880;BME280;25887;30.194;-97.880;2023-05-20T12:08:08;98888.59;;;23.83;58.78
38880;BME280;25887;30.194;-97.880;2023-05-20T12:10:35;98907.91;;;23.82;58.94
38880;BME280;25887;30.194;-97.880;2023-05-20T12:13:04;98914.97;;;23.80;58.79
38880;BME280;25887;30.194;-97.880;2023-05-20T12:15:34;98918.53;;;23.79;59.05
38880;BME280;25887;30.194;-97.880;2023-05-20T12:18:01;98929.94;;;23.78;59.14
38880;BME280;25887;30.194;-97.880;2023-05-20T12:20:39;98933.50;;;23.77;58.83
38880;BME280;25887;30.194;-97.880;2023-05-20T12:23:07;98951.16;;;23.74;59.34
38880;BME280;25887;30.194;-97.880;2023-05-20T12:25:33;98954.63;;;23.74;59.36
38880;BME280;25887;30.194;-97.880;2023-05-20T12:28:01;98955.53;;;23.73;58.85
38880;BME280;25887;30.194;-97.880;2023-05-20T12:30:27;98966.81;;;23.75;59.16
38880;BME280;25887;30.194;-97.880;2023-05-20T12:32:53;98970.28;;;23.76;59.14
38880;BME280;25887;30.194;-97.880;2023-05-20T12:35:40;98978.94;;;23.78;59.04
38880;BME280;25887;30.194;-97.880;2023-05-20T12:38:15;98974.63;;;23.77;59.14
38880;BME280;25887;30.194;-97.880;2023-05-20T12:40:41;98979.88;;;23.77;59.14
38880;BME280;25887;30.194;-97.880;2023-05-20T12:43:07;98984.25;;;23.76;59.14
38880;BME280;25887;30.194;-97.880;2023-05-20T12:45:33;98986.13;;;23.74;59.52
38880;BME280;25887;30.194;-97.880;2023-05-20T12:48:00;98986.13;;;23.74;59.65
38880;BME280;25887;30.194;-97.880;2023-05-20T12:50:27;98986.97;;;23.75;59.29
38880;BME280;25887;30.194;-97.880;2023-05-20T12:52:53;98991.38;;;23.74;59.43
38880;BME280;25887;30.194;-97.880;2023-05-20T12:55:19;98993.13;;;23.74;59.25
38880;BME280;25887;30.194;-97.880;2023-05-20T12:57:46;98998.38;;;23.74;59.41
38880;BME280;25887;30.194;-97.880;2023-05-20T13:00:13;98997.50;;;23.73;59.74
38880;BME280;25887;30.194;-97.880;2023-05-20T13:02:40;98998.31;;;23.75;59.48
38880;BME280;25887;30.194;-97.880;2023-05-20T13:05:07;99006.09;;;23.77;59.44